createdAt,value
2023-01-29T00:02:03.659Z,-0.22
2023-01-29T00:04:31.078Z,-0.16
2023-01-29T00:06:58.809Z,-0.08
2023-01-29T00:09:26.307Z,-0.08
2023-01-29T00:11:53.706Z,-0.20
2023-01-29T00:14:21.216Z,-0.23
2023-01-29T00:16:49.926Z,-0.16
2023-01-29T00:19:17.476Z,-0.23
2023-01-29T00:21:44.856Z,-0.18
2023-01-29T00:24:12.423Z,-0.16
2023-01-29T00:26:40.175Z,-0.23
2023-01-29T00:29:07.561Z,-0.27
2023-01-29T00:31:35.257Z,-0.08
2023-01-29T00:34:04.451Z,-0.18
2023-01-29T00:36:31.823Z,-0.11
2023-01-29T00:39:02.609Z,-0.10
2023-01-29T00:41:49.711Z,-0.36
2023-01-29T00:44:34.970Z,-0.46
2023-01-29T00:47:02.585Z,-0.45
2023-01-29T00:49:31.619Z,-0.30
2023-01-29T00:52:16.581Z,-0.39
2023-01-29T00:54:43.932Z,-0.47
2023-01-29T00:57:11.428Z,-0.30
2023-01-29T00:59:38.887Z,-0.27
2023-01-29T01:02:23.926Z,-0.30
2023-01-29T01:04:52.614Z,-0.34
2023-01-29T01:07:20.194Z,-0.39
2023-01-29T01:10:05.453Z,-0.48
2023-01-29T01:12:33.087Z,-0.40
2023-01-29T01:15:00.506Z,-0.45
2023-01-29T01:17:27.868Z,-0.34
2023-01-29T01:19:56.609Z,-0.32
2023-01-29T01:22:24.032Z,-0.44
2023-01-29T01:24:51.390Z,-0.34
2023-01-29T01:27:19.613Z,-0.42
2023-01-29T01:29:47.208Z,-0.33
2023-01-29T01:32:15.822Z,-0.14
2023-01-29T01:34:45.226Z,-0.28
2023-01-29T01:37:14.013Z,-0.31
2023-01-29T01:39:41.382Z,-0.41
2023-01-29T01:42:13.838Z,-0.46
2023-01-29T01:45:04.329Z,-0.35
2023-01-29T01:47:37.403Z,-0.55
2023-01-29T01:50:10.335Z,-0.42
2023-01-29T01:52:46.159Z,-0.46
2023-01-29T01:55:18.251Z,-0.44
2023-01-29T01:57:48.764Z,-0.36
2023-01-29T02:00:18.998Z,-0.32
2023-01-29T02:03:05.343Z,-0.45
2023-01-29T02:05:52.526Z,-0.41
2023-01-29T02:08:45.580Z,-0.52
2023-01-29T02:11:12.953Z,-0.51
2023-01-29T02:13:40.646Z,-0.46
2023-01-29T02:16:08.526Z,-0.57
2023-01-29T02:18:38.044Z,-0.60
2023-01-29T02:21:29.259Z,-0.60
2023-01-29T02:24:18.920Z,-0.61
2023-01-29T02:26:54.989Z,-0.64
2023-01-29T02:29:35.255Z,-0.59
2023-01-29T02:32:14.805Z,-0.56
2023-01-29T02:35:10.591Z,-0.55
2023-01-29T02:37:45.999Z,-0.71
2023-01-29T02:40:24.169Z,-0.75
2023-01-29T02:42:57.492Z,-0.78
2023-01-29T02:45:36.501Z,-0.88
2023-01-29T02:48:04.324Z,-0.94
2023-01-29T02:50:38.431Z,-1.10
2023-01-29T02:53:11.542Z,-0.95
2023-01-29T02:55:43.472Z,-1.16
2023-01-29T02:58:14.329Z,-1.30
2023-01-29T03:00:46.405Z,-1.38
2023-01-29T03:03:18.083Z,-1.30
2023-01-29T03:05:55.006Z,-1.22
2023-01-29T03:08:36.637Z,-1.45
2023-01-29T03:11:06.961Z,-1.27
2023-01-29T03:13:40.568Z,-1.31
2023-01-29T03:16:14.875Z,-1.45
2023-01-29T03:18:48.690Z,-1.57
2023-01-29T03:21:39.335Z,-1.49
2023-01-29T03:24:27.245Z,-1.27
2023-01-29T03:27:12.738Z,-1.42
2023-01-29T03:30:00.520Z,-1.34
2023-01-29T03:32:31.209Z,-1.21
2023-01-29T03:35:03.948Z,-1.05
2023-01-29T03:37:35.406Z,-1.12
2023-01-29T03:40:03.203Z,-0.99
2023-01-29T03:42:43.732Z,-0.96
2023-01-29T03:45:17.367Z,-0.90
2023-01-29T03:47:48.936Z,-1.02
2023-01-29T03:50:31.896Z,-1.10
2023-01-29T03:53:06.123Z,-1.28
2023-01-29T03:55:38.769Z,-1.17
2023-01-29T03:58:19.307Z,-1.23
2023-01-29T04:00:55.351Z,-1.16
2023-01-29T04:03:28.033Z,-1.30
2023-01-29T04:06:09.555Z,-1.24
2023-01-29T04:08:45.168Z,-1.42
2023-01-29T04:11:17.098Z,-1.59
2023-01-29T04:13:45.931Z,-1.66
2023-01-29T04:16:17.535Z,-1.75
2023-01-29T04:18:47.832Z,-1.70
2023-01-29T04:21:15.666Z,-1.66
2023-01-29T04:23:43.513Z,-1.77
2023-01-29T04:26:21.639Z,-1.72
2023-01-29T04:28:59.092Z,-1.76
2023-01-29T04:31:33.709Z,-1.62
2023-01-29T04:34:14.017Z,-1.66
2023-01-29T04:36:50.569Z,-1.60
2023-01-29T04:39:21.944Z,-1.68
2023-01-29T04:41:54.041Z,-1.74
2023-01-29T04:44:28.489Z,-1.85
2023-01-29T04:47:07.002Z,-1.92
2023-01-29T04:49:44.155Z,-1.95
2023-01-29T04:52:17.878Z,-2.02
2023-01-29T04:54:59.111Z,-1.84
2023-01-29T04:57:30.546Z,-1.80
2023-01-29T05:00:02.303Z,-1.70
2023-01-29T05:02:31.450Z,-1.88
2023-01-29T05:05:00.986Z,-1.89
2023-01-29T05:07:31.741Z,-1.92
2023-01-29T05:10:00.094Z,-1.80
2023-01-29T05:12:30.103Z,-1.90
2023-01-29T05:15:02.905Z,-1.97
2023-01-29T05:17:30.767Z,-1.97
2023-01-29T05:19:59.867Z,-2.04
2023-01-29T05:22:27.893Z,-1.92
2023-01-29T05:24:55.299Z,-1.91
2023-01-29T05:27:47.878Z,-2.15
2023-01-29T05:30:15.741Z,-2.03
2023-01-29T05:32:43.315Z,-2.11
2023-01-29T05:35:11.996Z,-2.01
2023-01-29T05:37:39.383Z,-2.01
2023-01-29T05:40:08.726Z,-1.95
2023-01-29T05:42:36.118Z,-1.98
2023-01-29T05:45:03.571Z,-1.96
2023-01-29T05:47:30.960Z,-2.03
2023-01-29T05:49:58.338Z,-1.95
2023-01-29T05:52:27.020Z,-2.17
2023-01-29T05:54:54.360Z,-2.14
2023-01-29T05:57:22.098Z,-2.32
2023-01-29T05:59:49.458Z,-2.23
2023-01-29T06:02:16.839Z,-2.13
2023-01-29T06:04:44.201Z,-2.19
2023-01-29T06:07:11.595Z,-2.28
2023-01-29T06:09:40.561Z,-2.06
2023-01-29T06:12:08.108Z,-2.15
2023-01-29T06:14:35.533Z,-2.26
2023-01-29T06:17:02.894Z,-2.37
2023-01-29T06:19:30.282Z,-2.22
2023-01-29T06:21:57.694Z,-2.27
2023-01-29T06:24:25.133Z,-2.27
2023-01-29T06:26:53.861Z,-2.16
2023-01-29T06:29:21.215Z,-2.03
2023-01-29T06:31:48.687Z,-1.94
2023-01-29T06:34:16.239Z,-1.89
2023-01-29T06:36:43.772Z,-1.95
2023-01-29T06:39:11.417Z,-1.78
2023-01-29T06:41:38.790Z,-1.74
2023-01-29T06:44:07.563Z,-1.62
2023-01-29T06:46:34.929Z,-1.53
2023-01-29T06:49:02.291Z,-1.40
2023-01-29T06:51:29.716Z,-1.36
2023-01-29T06:53:57.104Z,-1.38
2023-01-29T06:56:24.817Z,-1.61
2023-01-29T06:58:52.455Z,-1.49
2023-01-29T07:01:36.883Z,-1.36
2023-01-29T07:04:04.814Z,-1.42
2023-01-29T07:06:34.771Z,-1.42
2023-01-29T07:09:02.249Z,-1.34
2023-01-29T07:11:29.616Z,-1.24
2023-01-29T07:13:57.076Z,-1.41
2023-01-29T07:16:26.322Z,-1.38
2023-01-29T07:18:54.038Z,-1.38
2023-01-29T07:21:21.405Z,-1.30
2023-01-29T07:23:48.799Z,-1.22
2023-01-29T07:26:16.730Z,-1.14
2023-01-29T07:28:44.020Z,-1.05
2023-01-29T07:31:15.031Z,-0.87
2023-01-29T07:33:45.447Z,-0.80
2023-01-29T07:36:13.803Z,-0.75
2023-01-29T07:38:41.300Z,-0.73
2023-01-29T07:41:09.914Z,-0.69
2023-01-29T07:43:37.293Z,-0.70
2023-01-29T07:46:05.464Z,-0.67
2023-01-29T07:48:32.929Z,-0.67
2023-01-29T07:51:01.686Z,-0.66
2023-01-29T07:53:30.049Z,-0.52
2023-01-29T07:55:57.425Z,-0.54
2023-01-29T07:58:25.093Z,-0.70
2023-01-29T08:00:52.628Z,-0.59
2023-01-29T08:03:21.121Z,-0.49
2023-01-29T08:05:49.183Z,-0.34
2023-01-29T08:08:19.216Z,-0.07
2023-01-29T08:10:46.612Z,0.05
2023-01-29T08:13:13.961Z,0.12
2023-01-29T08:15:44.034Z,0.27
2023-01-29T08:18:11.711Z,0.29
2023-01-29T08:20:39.247Z,0.31
2023-01-29T08:23:08.985Z,0.40
2023-01-29T08:25:37.769Z,0.43
2023-01-29T08:28:05.764Z,0.51
2023-01-29T08:30:33.839Z,0.51
2023-01-29T08:33:03.288Z,0.69
2023-01-29T08:35:30.883Z,0.71
2023-01-29T08:38:00.118Z,0.61
2023-01-29T08:40:31.535Z,0.12
2023-01-29T08:43:02.235Z,0.19
2023-01-29T08:45:31.129Z,0.40
2023-01-29T08:47:58.432Z,0.29
2023-01-29T08:50:25.918Z,0.34
2023-01-29T08:52:58.348Z,0.12
2023-01-29T08:55:25.981Z,0.25
2023-01-29T08:57:53.380Z,0.07
2023-01-29T09:00:22.812Z,-0.05
2023-01-29T09:02:50.193Z,0.16
2023-01-29T09:05:17.859Z,0.15
2023-01-29T09:07:45.418Z,0.39
2023-01-29T09:10:13.366Z,0.47
2023-01-29T09:12:40.621Z,0.34
2023-01-29T09:15:09.157Z,0.30
2023-01-29T09:17:37.863Z,0.39
2023-01-29T09:20:06.915Z,0.36
2023-01-29T09:22:34.761Z,0.43
2023-01-29T09:25:02.511Z,0.27
2023-01-29T09:27:30.315Z,0.39
2023-01-29T09:29:57.765Z,0.35
2023-01-29T09:32:52.064Z,0.76
2023-01-29T09:35:14.133Z,0.76
2023-01-29T09:37:41.619Z,0.70
2023-01-29T09:40:25.642Z,0.80
2023-01-29T09:42:58.757Z,0.75
2023-01-29T09:45:29.363Z,0.70
2023-01-29T09:47:59.424Z,0.82
2023-01-29T09:50:32.124Z,0.98
2023-01-29T09:53:03.808Z,0.95
2023-01-29T09:55:36.312Z,1.01
2023-01-29T09:58:08.267Z,0.89
2023-01-29T10:00:41.768Z,0.68
2023-01-29T10:03:29.776Z,0.71
2023-01-29T10:06:13.107Z,0.93
2023-01-29T10:09:13.238Z,1.17
2023-01-29T10:11:49.800Z,1.37
2023-01-29T10:14:23.780Z,1.42
2023-01-29T10:17:05.930Z,1.37
2023-01-29T10:19:48.193Z,0.99
2023-01-29T10:22:47.520Z,1.16
2023-01-29T10:25:18.337Z,0.97
2023-01-29T10:27:49.970Z,1.13
2023-01-29T10:30:30.673Z,1.21
2023-01-29T10:33:02.634Z,1.18
2023-01-29T10:35:33.961Z,1.24
2023-01-29T10:38:20.704Z,1.24
2023-01-29T10:40:55.570Z,1.27
2023-01-29T10:43:33.762Z,1.32
2023-01-29T10:46:08.993Z,1.43
2023-01-29T10:48:45.506Z,1.36
2023-01-29T10:51:28.254Z,1.46
2023-01-29T10:54:13.260Z,1.72
2023-01-29T10:56:52.374Z,1.51
2023-01-29T10:59:38.883Z,1.60
2023-01-29T11:02:15.820Z,1.59
2023-01-29T11:04:43.185Z,1.78
2023-01-29T11:07:11.664Z,1.60
2023-01-29T11:09:45.063Z,1.79
2023-01-29T11:12:15.655Z,1.79
2023-01-29T11:14:47.160Z,1.93
2023-01-29T11:17:18.837Z,1.93
2023-01-29T11:19:48.337Z,1.99
2023-01-29T11:22:17.511Z,2.17
2023-01-29T11:24:46.862Z,2.30
2023-01-29T11:27:16.295Z,2.39
2023-01-29T11:29:45.836Z,2.40
2023-01-29T11:32:15.975Z,2.49
2023-01-29T11:35:04.129Z,2.22
2023-01-29T11:37:37.538Z,2.41
2023-01-29T11:40:36.184Z,2.15
2023-01-29T11:43:20.787Z,2.06
2023-01-29T11:45:50.100Z,2.41
2023-01-29T11:48:19.393Z,2.46
2023-01-29T11:50:53.505Z,2.60
2023-01-29T11:53:32.376Z,2.64
2023-01-29T11:56:01.610Z,2.68
2023-01-29T11:58:32.224Z,2.70
2023-01-29T12:01:01.131Z,2.78
2023-01-29T12:03:35.139Z,2.75
2023-01-29T12:06:06.817Z,2.64
2023-01-29T12:08:37.687Z,2.54
2023-01-29T12:11:12.645Z,2.32
2023-01-29T12:13:43.161Z,2.49
2023-01-29T12:16:21.630Z,2.69
2023-01-29T12:18:54.827Z,2.60
2023-01-29T12:21:30.573Z,2.80
2023-01-29T12:24:02.804Z,2.78
2023-01-29T12:26:36.243Z,2.72
2023-01-29T12:29:24.274Z,2.57
2023-01-29T12:32:00.548Z,2.55
2023-01-29T12:34:39.165Z,2.36
2023-01-29T12:37:17.760Z,2.37
2023-01-29T12:39:45.223Z,2.35
2023-01-29T12:42:18.956Z,2.43
2023-01-29T12:44:49.769Z,2.52
2023-01-29T12:47:23.034Z,2.74
2023-01-29T12:49:54.742Z,2.91
2023-01-29T12:52:28.631Z,3.07
2023-01-29T12:54:59.579Z,3.13
2023-01-29T12:57:43.551Z,3.27
2023-01-29T13:00:16.043Z,2.84
2023-01-29T13:02:50.778Z,2.83
2023-01-29T13:05:24.223Z,3.08
2023-01-29T13:07:57.653Z,3.16
2023-01-29T13:10:30.439Z,2.95
2023-01-29T13:13:03.484Z,2.60
2023-01-29T13:15:36.265Z,2.69
2023-01-29T13:18:24.587Z,2.76
2023-01-29T13:20:52.580Z,2.63
2023-01-29T13:23:21.803Z,2.66
2023-01-29T13:25:51.902Z,2.57
2023-01-29T13:28:23.372Z,2.67
2023-01-29T13:31:13.620Z,2.57
2023-01-29T13:33:42.704Z,2.65
2023-01-29T13:36:20.247Z,2.83
2023-01-29T13:38:59.698Z,3.00
2023-01-29T13:41:34.718Z,3.03
2023-01-29T13:44:05.635Z,3.13
2023-01-29T13:46:33.449Z,3.25
2023-01-29T13:49:04.824Z,3.32
2023-01-29T13:51:37.320Z,3.29
2023-01-29T13:54:08.525Z,3.21
2023-01-29T13:56:48.892Z,3.21
2023-01-29T13:59:26.307Z,3.13
2023-01-29T14:02:05.494Z,2.93
2023-01-29T14:04:34.096Z,2.98
2023-01-29T14:07:03.666Z,2.91
2023-01-29T14:09:50.432Z,3.03
2023-01-29T14:12:40.015Z,2.78
2023-01-29T14:15:35.723Z,2.70
2023-01-29T14:18:15.951Z,2.66
2023-01-29T14:20:53.413Z,2.55
2023-01-29T14:23:28.167Z,2.51
2023-01-29T14:25:58.220Z,2.63
2023-01-29T14:28:29.430Z,2.58
2023-01-29T14:30:58.906Z,2.74
2023-01-29T14:33:32.122Z,2.70
2023-01-29T14:36:00.479Z,2.63
2023-01-29T14:38:29.986Z,2.58
2023-01-29T14:41:08.383Z,2.68
2023-01-29T14:43:35.847Z,2.77
2023-01-29T14:46:44.359Z,2.49
2023-01-29T14:49:11.839Z,2.43
2023-01-29T14:51:44.884Z,2.38
2023-01-29T14:54:23.581Z,2.38
2023-01-29T14:56:58.507Z,2.54
2023-01-29T14:59:31.421Z,2.44
2023-01-29T15:02:03.401Z,2.42
2023-01-29T15:04:36.909Z,2.52
2023-01-29T15:07:08.252Z,2.41
2023-01-29T15:09:42.783Z,2.42
2023-01-29T15:12:20.888Z,2.23
2023-01-29T15:14:57.796Z,2.26
2023-01-29T15:17:31.675Z,2.28
2023-01-29T15:19:59.122Z,2.26
2023-01-29T15:22:28.991Z,2.25
2023-01-29T15:25:06.127Z,2.18
2023-01-29T15:27:34.287Z,2.11
2023-01-29T15:30:05.300Z,2.05
2023-01-29T15:32:36.861Z,2.09
2023-01-29T15:35:09.553Z,2.12
2023-01-29T15:37:37.688Z,2.03
2023-01-29T15:40:06.894Z,2.12
2023-01-29T15:42:44.636Z,1.97
2023-01-29T15:45:23.128Z,2.00
2023-01-29T15:47:53.483Z,1.91
2023-01-29T15:50:21.905Z,1.95
2023-01-29T15:52:51.927Z,1.80
2023-01-29T15:55:23.144Z,1.83
2023-01-29T15:57:53.178Z,1.77
2023-01-29T16:00:24.869Z,1.63
2023-01-29T16:02:56.222Z,1.56
2023-01-29T16:05:27.782Z,1.48
2023-01-29T16:07:56.812Z,1.46
2023-01-29T16:10:27.424Z,1.64
2023-01-29T16:12:55.361Z,1.52
2023-01-29T16:15:27.982Z,1.55
2023-01-29T16:17:56.865Z,1.57
2023-01-29T16:20:41.275Z,1.38
2023-01-29T16:23:18.030Z,1.57
2023-01-29T16:25:46.240Z,1.66
2023-01-29T16:28:13.651Z,1.51
2023-01-29T16:30:41.405Z,1.59
2023-01-29T16:33:14.856Z,1.66
2023-01-29T16:35:42.823Z,1.66
2023-01-29T16:38:19.519Z,1.59
2023-01-29T16:41:07.112Z,1.40
2023-01-29T16:43:50.780Z,1.64
2023-01-29T16:46:25.989Z,1.67
2023-01-29T16:48:55.004Z,1.65
2023-01-29T16:51:26.827Z,1.56
2023-01-29T16:53:58.314Z,1.69
2023-01-29T16:56:30.156Z,1.59
2023-01-29T16:58:58.332Z,1.65
2023-01-29T17:01:29.040Z,1.56
2023-01-29T17:04:03.103Z,1.63
2023-01-29T17:06:32.842Z,1.61
2023-01-29T17:09:02.149Z,1.66
2023-01-29T17:11:36.283Z,1.59
2023-01-29T17:14:05.620Z,1.60
2023-01-29T17:16:34.749Z,1.57
2023-01-29T17:19:17.497Z,1.58
2023-01-29T17:21:44.864Z,1.63
2023-01-29T17:24:12.387Z,1.61
2023-01-29T17:26:40.362Z,1.59
2023-01-29T17:29:13.049Z,1.54
2023-01-29T17:31:40.588Z,1.55
2023-01-29T17:34:12.570Z,1.59
2023-01-29T17:36:40.288Z,1.51
2023-01-29T17:39:15.853Z,1.40
2023-01-29T17:41:47.470Z,1.43
2023-01-29T17:44:18.119Z,1.36
2023-01-29T17:46:46.137Z,1.35
2023-01-29T17:49:23.276Z,1.25
2023-01-29T17:51:50.824Z,1.40
2023-01-29T17:54:20.135Z,1.30
2023-01-29T17:56:47.814Z,1.28
2023-01-29T17:59:16.735Z,1.39
2023-01-29T18:01:46.187Z,1.27
2023-01-29T18:04:14.115Z,1.17
2023-01-29T18:06:45.015Z,1.27
2023-01-29T18:09:14.485Z,1.28
2023-01-29T18:11:42.316Z,1.35
2023-01-29T18:14:13.600Z,1.30
2023-01-29T18:16:42.956Z,1.36
2023-01-29T18:19:15.794Z,1.24
2023-01-29T18:21:44.483Z,1.05
2023-01-29T18:24:12.020Z,1.21
2023-01-29T18:26:39.642Z,1.29
2023-01-29T18:29:07.061Z,1.33
2023-01-29T18:31:34.659Z,1.27
2023-01-29T18:34:02.575Z,1.39
2023-01-29T18:36:30.067Z,1.41
2023-01-29T18:38:59.367Z,1.21
2023-01-29T18:44:18.434Z,1.12
2023-01-29T18:46:45.777Z,1.04
2023-01-29T18:49:13.162Z,0.94
2023-01-29T18:51:40.548Z,0.87
2023-01-29T18:54:12.272Z,1.03
2023-01-29T18:57:11.519Z,0.93
2023-01-29T18:59:27.055Z,0.99
2023-01-29T19:01:54.447Z,1.00
2023-01-29T19:04:22.005Z,1.08
2023-01-29T19:06:49.394Z,1.06
2023-01-29T19:09:18.445Z,1.05
2023-01-29T19:11:45.844Z,1.10
2023-01-29T19:14:13.595Z,1.17
2023-01-29T19:16:42.598Z,1.16
2023-01-29T19:19:10.017Z,1.16
2023-01-29T19:21:37.400Z,1.12
2023-01-29T19:24:09.079Z,0.87
2023-01-29T19:26:37.812Z,1.13
2023-01-29T19:29:05.303Z,0.89
2023-01-29T19:31:32.720Z,1.01
2023-01-29T19:34:00.169Z,1.10
2023-01-29T19:36:27.725Z,1.15
2023-01-29T19:38:55.125Z,0.95
2023-01-29T19:41:22.593Z,1.01
2023-01-29T19:43:51.262Z,1.04
2023-01-29T19:46:18.652Z,0.95
2023-01-29T19:48:46.593Z,0.89
2023-01-29T19:51:14.440Z,0.95
2023-01-29T19:53:43.794Z,0.89
2023-01-29T19:56:13.428Z,0.89
2023-01-29T19:58:41.003Z,0.82
2023-01-29T20:01:15.606Z,0.96
2023-01-29T20:03:43.106Z,0.88
2023-01-29T20:06:11.247Z,0.73
2023-01-29T20:08:38.608Z,0.90
2023-01-29T20:11:06.367Z,0.92
2023-01-29T20:13:34.526Z,0.62
2023-01-29T20:16:03.787Z,0.74
2023-01-29T20:18:32.883Z,0.57
2023-01-29T20:21:00.896Z,0.73
2023-01-29T20:23:37.531Z,0.66
2023-01-29T20:26:06.821Z,0.35
2023-01-29T20:28:34.903Z,0.20
2023-01-29T20:31:02.863Z,0.35
2023-01-29T20:33:30.553Z,0.23
2023-01-29T20:36:02.218Z,0.19
2023-01-29T20:38:31.464Z,0.17
2023-01-29T20:41:04.794Z,0.05
2023-01-29T20:43:32.475Z,-0.04
2023-01-29T20:46:00.444Z,0.04
2023-01-29T20:48:27.847Z,-0.01
2023-01-29T20:50:55.230Z,0.02
2023-01-29T20:53:24.030Z,0.09
2023-01-29T20:55:51.615Z,0.01
2023-01-29T20:58:19.225Z,-0.05
2023-01-29T21:00:47.578Z,-0.01
2023-01-29T21:03:14.951Z,-0.09
2023-01-29T21:05:42.471Z,-0.22
2023-01-29T21:08:09.960Z,-0.12
2023-01-29T21:10:38.831Z,0.08
2023-01-29T21:13:06.187Z,-0.31
2023-01-29T21:15:33.560Z,-0.37
2023-01-29T21:18:04.361Z,-0.23
2023-01-29T21:20:35.006Z,-0.24
2023-01-29T21:23:04.669Z,-0.23
2023-01-29T21:25:33.346Z,-0.25
2023-01-29T21:28:03.624Z,-0.15
2023-01-29T21:30:31.122Z,-0.15
2023-01-29T21:32:58.529Z,-0.46
2023-01-29T21:35:25.983Z,-0.21
2023-01-29T21:37:53.383Z,-0.02
2023-01-29T21:40:21.135Z,-0.01
2023-01-29T21:43:06.095Z,0.01
2023-01-29T22:00:07.234Z,0.17
2023-01-29T22:02:34.668Z,0.08
2023-01-29T22:05:17.572Z,0.14
2023-01-29T22:07:45.937Z,0.18
2023-01-29T22:10:13.535Z,-0.05
2023-01-29T22:12:41.141Z,0.17
2023-01-29T22:15:11.337Z,0.14
2023-01-29T22:17:41.113Z,-0.17
2023-01-29T22:20:09.412Z,0.13
2023-01-29T22:22:36.781Z,0.01
2023-01-29T22:25:04.563Z,0.13
2023-01-29T22:27:32.736Z,0.29
2023-01-29T22:30:00.258Z,0.33
2023-01-29T22:32:30.068Z,0.26
2023-01-29T22:34:57.446Z,0.43
2023-01-29T22:37:24.855Z,0.48
2023-01-29T22:39:52.207Z,0.45
2023-01-29T22:42:20.084Z,0.49
2023-01-29T22:44:48.025Z,0.40
2023-01-29T22:47:15.287Z,0.38
2023-01-29T22:49:45.465Z,0.39
2023-01-29T22:52:13.652Z,0.31
2023-01-29T22:54:42.862Z,0.25
2023-01-29T22:57:12.067Z,0.09
2023-01-29T22:59:39.956Z,0.15
2023-01-29T23:02:08.238Z,0.22
2023-01-29T23:04:35.921Z,0.13
2023-01-29T23:07:04.639Z,-0.02
2023-01-29T23:09:32.050Z,-0.01
2023-01-29T23:11:59.416Z,0.15
2023-01-29T23:14:26.777Z,0.37
2023-01-29T23:16:54.162Z,0.23
2023-01-29T23:19:21.570Z,0.08
2023-01-29T23:21:48.955Z,0.17
2023-01-29T23:24:18.061Z,0.24
2023-01-29T23:27:03.411Z,0.32
2023-01-29T23:29:30.769Z,0.36
2023-01-29T23:31:58.143Z,0.35
2023-01-29T23:34:25.501Z,0.50
2023-01-29T23:36:52.867Z,0.47
2023-01-29T23:39:21.636Z,0.60
2023-01-29T23:41:49.013Z,0.35
2023-01-29T23:44:16.418Z,0.35
2023-01-29T23:46:44.288Z,0.29
2023-01-29T23:49:11.627Z,0.33
2023-01-29T23:51:39.001Z,0.22
2023-01-29T23:54:06.669Z,0.38
2023-01-29T23:56:35.393Z,0.44
2023-01-29T23:59:02.784Z,0.34
